createdAt,value
2018-05-09T00:00:11.848Z,15.54
2018-05-09T00:10:11.903Z,15.15
2018-05-09T00:20:11.842Z,14.86
2018-05-09T00:30:11.947Z,14.64
2018-05-09T00:40:11.782Z,14.44
2018-05-09T00:50:11.908Z,14.35
2018-05-09T01:00:11.849Z,14.13
2018-05-09T01:10:11.920Z,13.98
2018-05-09T01:20:11.940Z,13.65
2018-05-09T01:30:11.848Z,13.54
2018-05-09T01:40:11.812Z,13.56
2018-05-09T01:50:11.787Z,13.51
2018-05-09T02:00:11.863Z,13.56
2018-05-09T02:10:11.849Z,13.43
2018-05-09T02:20:11.892Z,13.54
2018-05-09T02:30:11.836Z,13.41
2018-05-09T02:40:11.791Z,13.24
2018-05-09T02:50:11.858Z,13.11
2018-05-09T03:00:11.848Z,13.06
2018-05-09T03:10:11.879Z,13.06
2018-05-09T03:20:11.826Z,12.81
2018-05-09T03:30:11.901Z,12.79
2018-05-09T03:40:11.851Z,12.71
2018-05-09T03:50:11.965Z,12.89
2018-05-09T04:00:11.861Z,12.93
2018-05-09T04:10:11.874Z,12.99
2018-05-09T04:20:11.905Z,12.87
2018-05-09T04:30:11.883Z,13.09
2018-05-09T04:40:11.973Z,13.59
2018-05-09T04:50:12.025Z,14.09
2018-05-09T05:00:11.961Z,14.01
2018-05-09T05:10:12.098Z,14.24
2018-05-09T05:20:12.011Z,14.67
2018-05-09T05:30:12.017Z,15.05
2018-05-09T05:40:11.984Z,15.56
2018-05-09T05:50:12.088Z,16.07
2018-05-09T06:00:12.045Z,16.71
2018-05-09T06:10:12.071Z,17.11
2018-05-09T06:20:12.041Z,17.79
2018-05-09T06:30:12.093Z,18.61
2018-05-09T06:40:12.072Z,19.4
2018-05-09T06:50:12.200Z,20.9
2018-05-09T07:00:12.084Z,27.06
2018-05-09T07:10:12.380Z,31.18
2018-05-09T07:20:12.115Z,33.95
2018-05-09T07:30:12.040Z,35.84
2018-05-09T07:40:13.539Z,37.19
2018-05-09T07:50:12.111Z,38.05
2018-05-09T08:00:12.160Z,39.17
2018-05-09T08:10:12.106Z,39.98
2018-05-09T08:20:12.144Z,39.44
2018-05-09T08:30:12.053Z,39.13
2018-05-09T08:40:12.088Z,39.06
2018-05-09T08:50:12.192Z,37.98
2018-05-09T09:00:12.116Z,32.8
2018-05-09T09:10:12.071Z,29.78
2018-05-09T09:20:12.094Z,28.38
2018-05-09T09:30:12.068Z,27.42
2018-05-09T09:40:12.085Z,27.32
2018-05-09T09:50:12.119Z,27.46
2018-05-09T10:00:12.122Z,27.21
2018-05-09T10:10:12.085Z,27.31
2018-05-09T10:20:12.071Z,27.31
2018-05-09T10:30:12.103Z,27.38
2018-05-09T10:40:12.099Z,27.43
2018-05-09T10:50:12.129Z,27.57
2018-05-09T11:00:12.106Z,27.58
2018-05-09T11:10:12.116Z,27.77
2018-05-09T11:20:12.105Z,27.77
2018-05-09T11:30:12.064Z,27.82
2018-05-09T11:40:12.127Z,27.82
2018-05-09T11:50:12.200Z,27.84
2018-05-09T12:00:12.196Z,27.94
2018-05-09T12:10:12.155Z,27.92
2018-05-09T12:20:12.102Z,27.99
2018-05-09T12:30:12.150Z,28.07
2018-05-09T12:40:12.139Z,28.36
2018-05-09T12:50:12.112Z,28.06
2018-05-09T13:00:12.183Z,28.44
2018-05-09T13:10:12.146Z,28.77
2018-05-09T13:20:12.213Z,28.16
2018-05-09T13:30:12.187Z,27.96
2018-05-09T13:40:12.241Z,28.03
2018-05-09T13:50:12.420Z,27.98
2018-05-09T14:00:13.128Z,28.97
2018-05-09T14:10:12.131Z,29.22
2018-05-09T14:20:12.171Z,29.89
2018-05-09T14:30:12.140Z,28.97
2018-05-09T14:40:12.151Z,28.8
2018-05-09T14:50:12.222Z,29.11
2018-05-09T15:00:12.332Z,28.65
2018-05-09T15:10:12.162Z,28.38
2018-05-09T15:20:12.177Z,28.04
2018-05-09T15:30:12.170Z,27.95
2018-05-09T15:40:12.241Z,27.84
2018-05-09T15:50:12.161Z,27.54
2018-05-09T16:00:13.327Z,27.28
2018-05-09T16:10:12.251Z,27.06
2018-05-09T16:20:12.185Z,27.04
2018-05-09T16:30:12.225Z,26.57
2018-05-09T16:40:12.221Z,26.18
2018-05-09T16:50:12.917Z,26.05
2018-05-09T17:00:12.178Z,25.84
2018-05-09T17:10:12.244Z,26.05
2018-05-09T17:20:12.164Z,26.05
2018-05-09T17:30:13.238Z,25.83
2018-05-09T17:40:12.442Z,25.62
2018-05-09T17:50:12.201Z,25.31
2018-05-09T18:00:12.242Z,24.88
2018-05-09T18:10:12.303Z,24.29
2018-05-09T18:20:12.224Z,23.75
2018-05-09T18:30:12.224Z,23.11
2018-05-09T18:40:12.217Z,22.31
2018-05-09T18:50:12.842Z,21.87
2018-05-09T19:00:12.240Z,21.39
2018-05-09T19:10:12.263Z,20.99
2018-05-09T19:20:12.206Z,20.71
2018-05-09T19:30:12.192Z,20.24
2018-05-09T19:40:12.240Z,19.97
2018-05-09T19:50:12.353Z,19.65
2018-05-09T20:00:12.246Z,19.35
2018-05-09T20:10:12.252Z,19.14
2018-05-09T20:20:12.238Z,18.91
2018-05-09T20:30:12.243Z,18.83
2018-05-09T20:40:12.195Z,18.79
2018-05-09T20:50:12.215Z,18.67
2018-05-09T21:00:12.215Z,18.64
2018-05-09T21:10:12.227Z,18.47
2018-05-09T21:20:12.276Z,18.43
2018-05-09T21:30:13.033Z,18.31
2018-05-09T21:40:12.460Z,18.17
2018-05-09T21:50:12.205Z,17.91
2018-05-09T22:00:13.364Z,17.85
2018-05-09T22:10:14.259Z,17.54
2018-05-09T22:20:14.504Z,17.5
2018-05-09T22:30:12.266Z,17.43
2018-05-09T22:40:12.292Z,17.33
2018-05-09T22:50:12.203Z,17.23
2018-05-09T23:00:12.257Z,17.14
2018-05-09T23:10:13.338Z,17.11
2018-05-09T23:20:12.239Z,17.32
2018-05-09T23:30:14.289Z,17.36
2018-05-09T23:40:12.208Z,17.64
2018-05-09T23:50:12.225Z,17.62
